< < Back
Terminal Aerodrome Forecast


Current Version              Previous Versions:   1  2  3  4  5  6  7  8  9  

Terminal Aerodrome Forecast

245
FTUS42 KTAE 251120
TAFVLD
TAF
KVLD 251120Z 2512/2612 14004KT P6SM SKC
     FM251500 15006KT P6SM BKN060
     FM260200 VRB03KT P6SM SKC=

Latest METAR

697
SAUS70 KWBC 261400 RRK
MTRVLD
METAR KVLD 261353Z 17006KT 10SM BKN080 26/18 A3021 RMK AO2 SLP236
T02560178


USA.gov is the U.S. government's official web portal to all federal, state and local government web resources and services.